Time;durP1;ratioP1;P1;durP2;ratioP2;P2;SDS_P1;SDS_P2;PMS_P1;PMS_P2;Temp;Humidity;BMP_temperature;BMP_pressure;BME280_temperature;BME280_humidity;BME280_pressure;Samples;Min_cycle;Max_cycle;Signal;HPM_P1;HPM_P2
2021/05/06 00:07:28;;;;;;;2.70;1.25;;;;;;;15.99;50.10;99985.13;1723179;83;21206;-66
2021/05/06 00:09:59;;;;;;;3.58;1.70;;;;;;;15.96;50.18;99981.27;1688460;83;21394;-66
2021/05/06 00:33:56;;;;;;;5.12;1.85;;;;;;;15.39;51.40;99971.09;1751178;81;21151;-65
2021/05/06 00:36:25;;;;;;;4.42;1.90;;;;;;;15.34;51.39;99963.77;1762222;80;21156;-65
2021/05/06 00:44:52;;;;;;;5.95;1.50;;;;;;;15.19;51.71;99959.93;1762921;81;21287;-49
2021/05/06 00:58:27;;;;;;;7.05;1.82;;;;;;;15.07;52.02;99940.06;1755547;81;21106;-50
2021/05/06 01:01:08;;;;;;;4.33;1.80;;;;;;;15.02;52.08;99933.59;1759037;81;21270;-49
2021/05/06 01:06:15;;;;;;;2.70;1.42;;;;;;;14.97;52.29;99934.70;1757266;81;21110;-66
2021/05/06 01:08:48;;;;;;;5.53;1.90;;;;;;;14.91;52.52;99937.13;1761066;81;21126;-50
2021/05/06 01:13:46;;;;;;;5.03;1.62;;;;;;;14.84;52.69;99936.48;1761826;81;21131;-67
2021/05/06 01:16:14;;;;;;;;;;;;;;;14.83;52.85;99929.92;1752209;81;21150;-67
2021/05/06 01:18:43;;;;;;;4.75;1.80;;;;;;;14.83;53.03;99931.25;1744335;81;20184;-51
2021/05/06 01:21:11;;;;;;;4.37;1.55;;;;;;;14.77;53.49;99921.76;1761711;80;21159;-67
2021/05/06 01:23:42;;;;;;;3.50;1.65;;;;;;;14.72;53.79;99917.94;1761869;81;21154;-51
2021/05/06 01:26:20;;;;;;;7.40;2.15;;;;;;;14.69;53.92;99922.49;1755598;80;21134;-67
2021/05/06 01:28:51;;;;;;;6.03;1.50;;;;;;;14.66;54.43;99918.59;1761683;81;21142;-50
2021/05/06 01:31:23;;;;;;;5.33;1.82;;;;;;;14.64;54.57;99912.49;1761748;81;21151;-51
2021/05/06 01:33:59;;;;;;;6.25;2.00;;;;;;;14.66;54.46;99918.59;1757663;81;21278;-67
2021/05/06 01:36:24;;;;;;;6.22;1.62;;;;;;;14.65;54.77;99920.37;1730967;81;21315;-67
2021/05/06 01:44:03;;;;;;;5.67;1.70;;;;;;;14.71;55.00;99944.49;1740095;82;21119;-67
2021/05/06 01:57:39;;;;;;;5.58;2.00;;;;;;;14.48;55.48;99908.22;1836257;77;22140;-64
2021/05/06 02:00:19;;;;;;;2.75;1.72;;;;;;;14.39;55.68;99914.69;1783643;80;21119;-65
2021/05/06 02:02:48;;;;;;;5.47;1.98;;;;;;;14.27;56.07;99919.96;1802279;79;21107;-49
2021/05/06 02:05:17;;;;;;;4.10;1.77;;;;;;;14.17;56.17;99918.10;1724169;82;21618;-49
2021/05/06 02:07:47;;;;;;;3.60;2.27;;;;;;;14.12;56.37;99916.06;1722595;83;21166;-49
2021/05/06 02:10:18;;;;;;;;;;;;;;;14.05;56.66;99915.42;1718990;82;21151;-50
2021/05/06 02:12:46;;;;;;;5.53;1.82;;;;;;;14.04;57.07;99903.55;1720144;83;20418;-50
2021/05/06 02:15:22;;;;;;;7.72;2.27;;;;;;;14.01;57.11;99899.25;1719471;83;21156;-66
2021/05/06 02:17:48;;;;;;;6.15;2.20;;;;;;;14.03;57.24;99901.83;1719460;83;21171;-65
2021/05/06 02:20:17;;;;;;;6.42;2.12;;;;;;;14.02;57.27;99900.09;1717037;82;21346;-50
2021/05/06 02:25:21;;;;;;;6.92;2.67;;;;;;;14.02;57.43;99898.33;1826771;77;28514;-48
2021/05/06 02:27:49;;;;;;;5.62;2.17;;;;;;;14.01;57.70;99906.30;1792118;80;21146;-65
2021/05/06 02:30:18;;;;;;;5.95;2.15;;;;;;;14.02;57.50;99915.53;1790262;80;21187;-64
2021/05/06 02:32:47;;;;;;;5.40;2.35;;;;;;;14.01;57.62;99919.53;1793157;80;21178;-64
2021/05/06 02:35:15;;;;;;;7.15;1.92;;;;;;;14.00;57.52;99911.19;1793113;80;21158;-49
2021/05/06 02:37:43;;;;;;;3.60;2.10;;;;;;;14.00;57.58;99914.72;1788822;80;21134;-65
2021/05/06 02:40:13;;;;;;;5.70;2.17;;;;;;;14.00;57.60;99918.69;1761759;81;21167;-65
2021/05/06 02:42:41;;;;;;;4.83;2.20;;;;;;;13.97;57.70;99916.14;1762057;81;21589;-49
2021/05/06 02:45:11;;;;;;;5.25;2.12;;;;;;;13.95;57.63;99924.11;1761756;81;21159;-50
2021/05/06 02:47:40;;;;;;;5.80;2.12;;;;;;;13.95;57.71;99935.17;1776977;80;21126;-66
2021/05/06 02:50:18;;;;;;;4.90;1.80;;;;;;;13.95;57.62;99941.78;1761802;81;21297;-51
2021/05/06 02:53:00;;;;;;;4.62;2.08;;;;;;;13.98;57.53;99950.94;1762085;80;21131;-66
2021/05/06 02:58:14;;;;;;;6.90;1.90;;;;;;;14.00;57.57;99942.50;1795341;77;22601;-49
2021/05/06 03:03:22;;;;;;;3.75;1.90;;;;;;;13.93;57.54;99955.52;1758359;81;21134;-65
2021/05/06 03:05:54;;;;;;;5.92;2.72;;;;;;;13.90;57.61;99959.14;1782506;80;21129;-49
2021/05/06 03:11:25;;;;;;;12.70;2.58;;;;;;;13.87;57.82;99959.23;1814843;77;22621;-65
2021/05/06 03:24:27;;;;;;;8.80;2.67;;;;;;;13.83;58.75;99969.03;1743932;81;21174;-50
2021/05/06 03:26:53;;;;;;;5.20;1.90;;;;;;;13.86;58.74;99968.53;1748297;81;21135;-50
2021/05/06 03:29:38;;;;;;;6.92;2.00;;;;;;;13.90;58.79;99972.81;1761830;81;21163;-65
2021/05/06 03:32:25;;;;;;;5.50;2.00;;;;;;;13.93;58.89;99979.33;1759602;81;21159;-65
2021/05/06 03:35:05;;;;;;;9.43;3.22;;;;;;;13.95;58.77;99977.02;1761574;81;21126;-50
2021/05/06 04:19:05;;;;;;;5.58;2.45;;;;;;;15.30;57.84;99973.64;1717729;83;21279;-66
2021/05/06 04:37:50;;;;;;;4.78;2.50;;;;;;;16.01;56.00;99971.33;1756399;81;21323;-51
2021/05/06 04:56:34;;;;;;;6.83;2.10;;;;;;;16.58;53.46;99979.13;1699951;84;21169;-51
2021/05/06 05:06:54;;;;;;;3.77;1.57;;;;;;;16.72;51.83;99973.20;1761875;80;21195;-50
2021/05/06 05:25:38;;;;;;;6.10;1.55;;;;;;;18.21;47.15;99974.26;1793301;80;21134;-51
2021/05/06 05:28:07;;;;;;;2.58;1.20;;;;;;;18.30;46.74;99977.79;1777775;80;21279;-51
2021/05/06 05:30:39;;;;;;;5.00;1.70;;;;;;;18.25;46.98;99971.83;1777417;80;21142;-65
2021/05/06 05:33:12;;;;;;;6.80;1.50;;;;;;;18.20;46.91;99979.19;1766316;80;21114;-65
2021/05/06 05:39:07;;;;;;;7.75;1.70;;;;;;;18.28;46.96;99972.52;1834762;77;20123;-64
2021/05/06 05:41:01;;;;;;;4.90;1.37;;;;;;;18.24;46.24;99972.28;1755176;80;21154;-51
2021/05/06 05:56:46;;;;;;;4.78;1.62;;;;;;;18.69;43.28;100003.31;1762155;81;21151;-64
2021/05/06 05:59:14;;;;;;;4.90;1.40;;;;;;;18.80;43.48;99994.75;1754799;81;21296;-65
2021/05/06 06:01:43;;;;;;;3.37;1.40;;;;;;;18.93;43.87;99999.44;1761961;80;21503;-51
2021/05/06 06:04:11;;;;;;;2.90;1.27;;;;;;;18.99;43.43;99996.45;1761748;81;21178;-51
2021/05/06 06:06:40;;;;;;;4.95;1.62;;;;;;;19.10;42.63;99999.41;1749763;80;21171;-51
2021/05/06 06:09:09;;;;;;;5.17;1.70;;;;;;;19.14;43.08;99998.30;1760754;81;21265;-64
2021/05/06 06:11:37;;;;;;;3.47;1.25;;;;;;;19.12;43.35;99994.85;1761811;81;21330;-65
2021/05/06 06:14:07;;;;;;;4.12;1.25;;;;;;;19.25;43.75;99995.53;1762000;81;21607;-51
2021/05/06 06:16:38;;;;;;;3.35;1.27;;;;;;;19.30;43.97;99995.65;1757111;81;21273;-51
2021/05/06 06:19:06;;;;;;;7.53;1.80;;;;;;;19.45;44.79;99999.27;1727603;83;21135;-64
2021/05/06 06:24:07;;;;;;;4.60;1.30;;;;;;;19.76;42.94;99996.23;1714652;84;21158;-52
2021/05/06 06:26:36;;;;;;;6.03;1.62;;;;;;;19.84;42.96;100007.80;1721413;83;21162;-51
2021/05/06 06:29:10;;;;;;;6.95;2.35;;;;;;;19.95;42.70;100009.05;1714332;83;21352;-51
2021/05/06 06:31:44;;;;;;;6.62;1.42;;;;;;;20.00;42.31;100004.30;1696730;84;21186;-65
2021/05/06 06:34:10;;;;;;;5.47;1.22;;;;;;;20.01;41.44;100014.88;1696986;84;21174;-50
2021/05/06 06:36:39;;;;;;;3.42;1.37;;;;;;;19.94;41.24;100012.66;1718555;83;21138;-50
2021/05/06 06:39:09;;;;;;;5.28;1.80;;;;;;;19.93;41.52;100011.78;1699672;83;21292;-64
2021/05/06 06:41:37;;;;;;;4.37;1.50;;;;;;;19.89;42.04;100014.23;1691720;85;21312;-50
2021/05/06 06:44:06;;;;;;;4.08;1.50;;;;;;;19.93;42.29;100019.80;1699922;83;21605;-51
2021/05/06 06:46:35;;;;;;;3.05;1.30;;;;;;;19.92;42.77;100023.41;1713347;84;21201;-63
2021/05/06 06:49:04;;;;;;;9.58;1.70;;;;;;;19.99;42.76;100019.45;1703839;83;21135;-65
2021/05/06 06:51:32;;;;;;;7.80;1.50;;;;;;;20.03;42.55;100022.33;1684787;84;21312;-63
2021/05/06 06:54:00;;;;;;;4.42;1.42;;;;;;;19.94;42.24;100032.20;1746173;82;21151;-51
2021/05/06 06:56:28;;;;;;;3.67;1.50;;;;;;;19.77;42.71;100034.47;1756843;80;21167;-50
2021/05/06 06:58:57;;;;;;;6.70;1.67;;;;;;;19.69;43.08;100038.03;1729230;82;21115;-64
2021/05/06 07:01:27;;;;;;;;;;;;;;;19.65;43.71;100031.17;1729183;83;21134;-51
2021/05/06 07:03:55;;;;;;;4.05;1.22;;;;;;;19.84;44.20;100030.99;1755359;82;20144;-51
2021/05/06 07:06:23;;;;;;;5.72;1.40;;;;;;;20.11;42.35;100031.23;1756125;82;21159;-51
2021/05/06 07:08:52;;;;;;;4.10;2.42;;;;;;;20.39;41.13;100022.95;1734576;82;21151;-51
2021/05/06 07:11:20;;;;;;;5.15;1.60;;;;;;;20.57;42.09;100012.09;1734037;82;21310;-51
2021/05/06 07:13:49;;;;;;;7.50;1.42;;;;;;;20.76;42.03;100011.38;1726355;83;21162;-51
2021/05/06 07:16:17;;;;;;;5.72;1.45;;;;;;;20.97;40.30;100011.52;1731840;82;21269;-65
2021/05/06 07:18:46;;;;;;;3.55;1.35;;;;;;;21.08;39.82;100019.27;1756200;82;21177;-52
2021/05/06 07:21:15;;;;;;;4.50;1.20;;;;;;;21.24;39.76;100019.16;1756001;81;21146;-52
2021/05/06 07:23:43;;;;;;;4.70;2.00;;;;;;;21.36;40.36;100005.50;1756136;82;21139;-65
2021/05/06 07:26:13;;;;;;;6.37;1.45;;;;;;;21.55;39.51;100009.66;1755904;82;21163;-66
2021/05/06 07:28:43;;;;;;;4.30;1.40;;;;;;;21.69;39.30;100004.31;1755624;82;21135;-52
2021/05/06 07:31:13;;;;;;;8.10;1.30;;;;;;;21.76;38.70;100026.69;1756120;80;21130;-51
2021/05/06 07:33:47;;;;;;;5.42;1.70;;;;;;;21.74;38.48;100019.23;1756256;82;21163;-51
2021/05/06 07:36:18;;;;;;;3.62;1.37;;;;;;;21.75;39.05;100019.61;1755330;81;21100;-65
2021/05/06 07:38:48;;;;;;;5.03;1.15;;;;;;;21.69;37.75;100019.52;1756080;82;21139;-65
2021/05/06 07:41:19;;;;;;;6.60;1.60;;;;;;;21.85;38.51;100026.09;1755898;81;21115;-51
2021/05/06 07:43:49;;;;;;;2.30;1.22;;;;;;;21.92;38.28;100030.06;1756212;82;21163;-66
2021/05/06 07:46:19;;;;;;;3.20;1.40;;;;;;;21.90;37.67;100021.27;1743272;80;21188;-53
2021/05/06 07:48:50;;;;;;;4.83;1.32;;;;;;;21.91;37.76;100029.69;1756561;81;21597;-65
2021/05/06 07:51:20;;;;;;;5.17;1.35;;;;;;;21.95;38.10;100024.51;1760033;81;21542;-52
2021/05/06 07:53:52;;;;;;;3.95;1.25;;;;;;;22.10;37.93;100023.13;1761211;81;21140;-65
2021/05/06 07:56:22;;;;;;;7.85;1.42;;;;;;;22.08;37.07;100020.53;1731009;82;21157;-65
2021/05/06 07:58:50;;;;;;;4.15;1.37;;;;;;;22.06;37.57;100014.45;1731727;81;21292;-64
2021/05/06 08:01:19;;;;;;;4.85;2.00;;;;;;;21.97;38.01;100012.37;1728221;81;21163;-52
2021/05/06 08:03:48;;;;;;;5.35;1.57;;;;;;;21.90;38.25;100014.57;1761940;81;21147;-52
2021/05/06 08:06:20;;;;;;;6.53;1.60;;;;;;;21.84;38.50;100015.00;1761012;81;21131;-51
2021/05/06 08:08:52;;;;;;;4.40;1.40;;;;;;;21.74;38.77;100020.08;1760990;81;21143;-65
2021/05/06 08:11:19;;;;;;;5.25;1.50;;;;;;;21.73;39.27;100015.68;1761532;80;21143;-66
2021/05/06 08:13:48;;;;;;;3.70;1.27;;;;;;;21.78;39.50;100012.22;1750371;81;21147;-66
2021/05/06 08:16:17;;;;;;;4.10;1.22;;;;;;;21.82;39.04;100008.88;1731347;82;21304;-52
2021/05/06 08:18:45;;;;;;;4.25;1.40;;;;;;;21.87;38.90;100013.43;1752508;81;21296;-53
2021/05/06 08:21:14;;;;;;;6.78;1.60;;;;;;;21.92;39.31;100021.19;1761406;80;21130;-52
2021/05/06 08:23:43;;;;;;;3.33;1.02;;;;;;;22.03;39.63;100021.81;1759195;81;21114;-65
2021/05/06 08:26:11;;;;;;;2.37;1.35;;;;;;;22.26;39.00;100017.59;1731577;81;21119;-54
2021/05/06 08:28:41;;;;;;;3.95;1.50;;;;;;;22.39;39.06;100019.84;1762276;81;21151;-52
2021/05/06 08:31:10;;;;;;;3.65;1.50;;;;;;;22.50;38.04;100022.31;1761369;80;21146;-65
2021/05/06 08:33:38;;;;;;;10.53;1.50;;;;;;;22.70;38.92;100019.60;1738212;81;21134;-65
2021/05/06 08:36:07;;;;;;;3.62;1.50;;;;;;;22.92;37.89;100022.12;1741315;81;21277;-65
2021/05/06 08:38:36;;;;;;;4.90;1.50;;;;;;;22.80;37.21;100013.95;1761717;81;21147;-53
2021/05/06 08:41:04;;;;;;;6.70;2.08;;;;;;;22.72;37.64;100003.77;1761824;80;21155;-52
2021/05/06 08:43:36;;;;;;;6.20;1.55;;;;;;;22.58;37.82;100010.09;1744037;81;21131;-65
2021/05/06 08:46:04;;;;;;;3.10;1.10;;;;;;;22.46;37.33;100002.03;1751769;80;21151;-66
2021/05/06 08:48:35;;;;;;;4.95;1.90;;;;;;;22.41;37.85;100009.87;1763023;81;21135;-65
2021/05/06 08:51:05;;;;;;;5.42;1.70;;;;;;;22.39;37.92;100009.58;1739148;81;21179;-66
2021/05/06 08:53:37;;;;;;;;;;;;;;;22.36;38.68;100001.74;1750319;82;21309;-53
2021/05/06 08:56:05;;;;;;;4.47;1.50;;;;;;;22.38;39.45;99999.35;1748089;81;20267;-65
2021/05/06 08:58:33;;;;;;;5.42;1.52;;;;;;;22.48;39.51;100005.47;1748228;82;21147;-65
2021/05/06 09:01:01;;;;;;;6.97;1.52;;;;;;;22.60;39.59;100007.78;1730320;82;21167;-52
2021/05/06 09:03:30;;;;;;;4.40;1.80;;;;;;;22.80;39.90;100007.73;1728217;82;21115;-65
2021/05/06 09:06:18;;;;;;;5.42;1.50;;;;;;;23.03;40.09;100008.81;1748822;81;21147;-65
2021/05/06 09:08:53;;;;;;;3.60;1.45;;;;;;;23.24;39.13;100002.90;1748238;82;21140;-65
2021/05/06 09:11:32;;;;;;;5.15;1.92;;;;;;;23.44;38.60;100006.83;1731178;81;21180;-53
2021/05/06 09:14:07;;;;;;;3.53;1.47;;;;;;;23.70;38.30;100005.43;1733089;82;21150;-65
2021/05/06 09:16:41;;;;;;;5.83;1.75;;;;;;;23.82;38.01;100007.22;1718579;83;21171;-65
2021/05/06 09:19:15;;;;;;;5.85;1.72;;;;;;;24.10;38.39;100008.34;1723712;82;21107;-65
2021/05/06 09:21:45;;;;;;;5.03;1.50;;;;;;;24.44;37.26;100005.30;1747742;82;21135;-65
2021/05/06 09:24:25;;;;;;;4.42;1.55;;;;;;;24.72;37.43;99999.65;1748042;82;21150;-53
2021/05/06 09:26:55;;;;;;;5.55;2.02;;;;;;;25.10;37.34;100002.49;1748158;81;21155;-65
2021/05/06 09:32:22;;;;;;;4.33;1.50;;;;;;;25.25;36.36;99992.33;1812464;77;22131;-64
2021/05/06 09:34:54;;;;;;;5.83;2.05;;;;;;;25.21;36.23;100010.58;1762172;81;21146;-64
2021/05/06 09:37:30;;;;;;;8.30;2.55;;;;;;;25.16;35.87;100018.67;1761848;81;21155;-52
2021/05/06 09:40:10;;;;;;;5.30;1.60;;;;;;;25.02;36.41;100017.92;1755344;81;21139;-65
2021/05/06 09:42:43;;;;;;;6.08;1.87;;;;;;;25.10;36.60;100024.03;1762149;81;21113;-64
2021/05/06 09:45:26;;;;;;;9.43;2.27;;;;;;;25.10;36.60;100024.03;1761909;81;21292;-53
2021/05/06 09:48:13;;;;;;;3.58;1.77;;;;;;;24.91;36.81;100025.50;1761826;81;21154;-53
2021/05/06 09:50:44;;;;;;;4.78;1.87;;;;;;;24.75;36.85;100026.31;1761497;81;21192;-65
2021/05/06 09:53:17;;;;;;;13.18;2.40;;;;;;;24.82;37.94;100018.61;1761857;81;21143;-53
2021/05/06 09:55:46;;;;;;;6.30;2.00;;;;;;;24.44;38.58;100028.16;1762170;81;21618;-52
2021/05/06 09:58:27;;;;;;;5.53;2.25;;;;;;;24.87;38.08;100021.34;1760681;81;21144;-53
2021/05/06 10:00:55;;;;;;;;;;;;;;;24.97;37.20;100016.55;1764627;81;21715;-65
2021/05/06 10:03:32;;;;;;;4.87;1.77;;;;;;;25.00;37.06;100026.60;1761833;81;20160;-65
2021/05/06 10:06:18;;;;;;;7.75;1.90;;;;;;;25.07;37.12;100020.23;1744269;81;21721;-52
2021/05/06 10:08:47;;;;;;;5.58;1.98;;;;;;;25.09;37.51;100027.23;1754775;81;21135;-52
2021/05/06 10:11:20;;;;;;;6.67;2.30;;;;;;;25.06;37.08;100030.16;1762036;80;21309;-64
2021/05/06 10:13:50;;;;;;;9.15;2.80;;;;;;;25.07;37.62;100018.89;1762218;81;21162;-52
2021/05/06 10:16:18;;;;;;;5.80;2.12;;;;;;;25.18;37.68;100024.76;1760445;80;21132;-53
2021/05/06 10:18:46;;;;;;;6.95;2.05;;;;;;;25.31;37.83;100028.70;1761449;81;21126;-53
2021/05/06 10:21:16;;;;;;;5.00;1.82;;;;;;;25.53;37.24;100017.08;1760186;81;21350;-53
2021/05/06 10:23:51;;;;;;;5.12;2.15;;;;;;;25.82;36.88;100024.13;1761624;81;21119;-65
2021/05/06 10:26:19;;;;;;;6.60;1.95;;;;;;;26.03;36.64;100018.44;1762563;81;21731;-66
2021/05/06 10:28:50;;;;;;;6.92;2.05;;;;;;;26.07;36.94;100023.43;1762492;81;21276;-66
2021/05/06 10:31:19;;;;;;;8.48;2.12;;;;;;;26.10;37.14;100026.34;1754604;81;21326;-53
2021/05/06 10:33:47;;;;;;;4.45;1.85;;;;;;;26.05;36.74;100024.05;1737720;82;21245;-53
2021/05/06 10:36:17;;;;;;;8.33;2.22;;;;;;;26.09;36.38;100021.94;1748933;81;21132;-65
2021/05/06 10:38:45;;;;;;;8.48;2.75;;;;;;;26.06;36.44;100017.67;1728543;82;21281;-65
2021/05/06 10:41:31;;;;;;;5.45;2.25;;;;;;;25.93;36.26;100021.02;1742541;81;21667;-65
2021/05/06 10:44:03;;;;;;;7.80;1.98;;;;;;;25.80;36.80;100027.92;1718446;83;21139;-53
2021/05/06 10:46:57;;;;;;;;;;;;;;;25.78;37.03;100026.71;1728953;82;21143;-53
2021/05/06 10:49:32;;;;;;;8.50;2.65;;;;;;;25.75;36.83;100025.62;1722989;82;20172;-53
2021/05/06 10:52:06;;;;;;;5.50;2.20;;;;;;;25.63;37.06;100029.30;1700639;81;21147;-53
2021/05/06 10:54:53;;;;;;;8.38;2.58;;;;;;;25.57;36.54;100028.45;1733424;81;21301;-65
2021/05/06 10:57:27;;;;;;;6.58;2.40;;;;;;;25.43;36.81;100036.28;1732905;82;21143;-66
2021/05/06 10:59:55;;;;;;;4.58;1.80;;;;;;;25.29;37.16;100026.62;1742882;82;21382;-54
2021/05/06 11:02:46;;;;;;;8.15;2.42;;;;;;;25.08;37.86;100038.98;1722835;82;21607;-55
2021/05/06 11:05:20;;;;;;;6.17;2.15;;;;;;;25.00;38.09;100037.37;1665382;85;21190;-65
2021/05/06 11:08:09;;;;;;;7.87;2.95;;;;;;;25.24;38.26;100045.34;1719063;82;21150;-52
2021/05/06 11:10:50;;;;;;;7.62;2.47;;;;;;;25.27;38.35;100044.73;1716953;83;21230;-64
2021/05/06 11:13:23;;;;;;;6.75;2.58;;;;;;;25.04;38.56;100044.23;1718546;83;21164;-52
2021/05/06 11:15:52;;;;;;;6.15;2.30;;;;;;;24.76;38.63;100049.56;1718632;83;21606;-64
2021/05/06 11:18:44;;;;;;;6.92;2.65;;;;;;;24.32;39.63;100051.94;1747887;82;21539;-52
2021/05/06 11:21:33;;;;;;;6.67;2.30;;;;;;;24.10;40.26;100056.72;1748259;81;21317;-64
2021/05/06 11:24:27;;;;;;;7.72;2.83;;;;;;;24.02;40.46;100063.55;1744990;81;21143;-65
2021/05/06 11:29:43;;;;;;;7.17;2.75;;;;;;;23.92;40.86;100070.54;1683740;85;21127;-65
2021/05/06 11:32:34;;;;;;;4.37;2.15;;;;;;;23.81;40.68;100074.02;1727780;83;21142;-65
2021/05/06 11:35:04;;;;;;;8.90;2.55;;;;;;;23.71;40.40;100079.19;1697024;83;21344;-64
2021/05/06 11:37:33;;;;;;;4.75;2.12;;;;;;;23.63;40.09;100082.06;1678848;85;21167;-51
2021/05/06 11:40:08;;;;;;;4.90;2.42;;;;;;;23.43;39.68;100080.30;1678872;85;21194;-65
2021/05/06 11:42:40;;;;;;;3.55;1.90;;;;;;;23.34;40.62;100077.80;1678791;85;21171;-50
2021/05/06 11:45:19;;;;;;;6.25;2.40;;;;;;;23.36;40.08;100080.39;1694131;84;21217;-50
2021/05/06 11:47:46;;;;;;;4.55;2.72;;;;;;;23.50;40.35;100076.22;1707936;84;21625;-65
2021/05/06 11:50:25;;;;;;;9.00;2.70;;;;;;;23.77;40.10;100075.21;1725806;83;21178;-51
2021/05/06 11:52:54;;;;;;;6.37;2.12;;;;;;;24.06;39.91;100082.98;1708961;83;21166;-65
2021/05/06 11:55:38;;;;;;;7.78;2.72;;;;;;;24.37;39.65;100083.38;1706296;83;21562;-52
2021/05/06 11:58:06;;;;;;;6.25;2.70;;;;;;;24.61;39.15;100085.20;1700097;83;21281;-65
2021/05/06 12:00:34;;;;;;;7.45;2.52;;;;;;;24.60;38.24;100082.98;1706601;83;21199;-65
2021/05/06 12:03:06;;;;;;;5.40;2.65;;;;;;;24.68;39.27;100086.92;1711073;83;21179;-52
2021/05/06 12:05:57;;;;;;;7.72;2.95;;;;;;;24.66;40.53;100091.09;1725187;83;21351;-53
2021/05/06 12:08:45;;;;;;;7.05;2.55;;;;;;;24.55;40.24;100097.27;1725471;83;21138;-54
2021/05/06 12:11:14;;;;;;;5.60;2.90;;;;;;;23.94;40.91;100094.60;1683476;85;21714;-66
2021/05/06 12:13:46;;;;;;;6.10;2.50;;;;;;;23.71;42.11;100099.83;1689554;84;21163;-65
2021/05/06 12:16:26;;;;;;;5.53;2.60;;;;;;;23.45;42.11;100103.88;1687533;83;21177;-51
2021/05/06 12:19:10;;;;;;;9.83;3.20;;;;;;;23.26;42.40;100101.17;1696004;84;21312;-52
2021/05/06 12:21:48;;;;;;;6.12;2.95;;;;;;;23.36;42.47;100103.22;1692460;84;21531;-65
2021/05/06 12:24:44;;;;;;;7.35;2.98;;;;;;;23.31;42.62;100098.16;1703897;83;21138;-65
2021/05/06 12:27:24;;;;;;;7.30;3.35;;;;;;;23.45;43.39;100103.88;1707134;84;21152;-66
2021/05/06 12:30:01;;;;;;;5.53;2.67;;;;;;;23.93;42.68;100099.60;1707338;84;21140;-53
2021/05/06 12:32:37;;;;;;;6.67;2.98;;;;;;;24.31;41.14;100093.25;1692311;84;21167;-53
2021/05/06 12:35:04;;;;;;;6.37;3.08;;;;;;;24.64;40.62;100094.39;1726077;83;21212;-66
2021/05/06 12:37:33;;;;;;;8.17;2.90;;;;;;;24.93;40.11;100088.15;1727325;82;21272;-66
2021/05/06 12:40:04;;;;;;;4.72;2.42;;;;;;;25.12;39.22;100081.81;1742984;82;21598;-66
2021/05/06 12:42:36;;;;;;;8.73;2.60;;;;;;;25.17;39.05;100085.01;1726156;83;21320;-66
2021/05/06 12:45:18;;;;;;;7.05;2.50;;;;;;;25.18;38.73;100084.00;1749504;82;21180;-54
2021/05/06 12:47:49;;;;;;;7.53;3.25;;;;;;;25.03;38.93;100088.28;1750941;82;21111;-53
2021/05/06 12:50:30;;;;;;;4.85;2.62;;;;;;;24.98;38.51;100094.52;1726009;83;21155;-54
2021/05/06 12:53:08;;;;;;;5.22;2.50;;;;;;;24.82;38.27;100095.31;1726468;83;21582;-66
2021/05/06 12:55:41;;;;;;;8.23;3.37;;;;;;;24.73;38.91;100095.04;1726240;83;21182;-66
2021/05/06 12:58:17;;;;;;;8.53;2.80;;;;;;;24.67;37.80;100089.25;1725951;83;21301;-54
2021/05/06 13:00:56;;;;;;;7.08;2.45;;;;;;;24.52;38.25;100103.38;1726301;83;21186;-53
2021/05/06 13:03:32;;;;;;;5.80;2.70;;;;;;;24.41;38.54;100098.31;1724310;82;21114;-66
2021/05/06 13:06:15;;;;;;;5.00;2.20;;;;;;;24.17;38.21;100105.91;1726029;83;21631;-53
2021/05/06 13:08:44;;;;;;;5.67;2.58;;;;;;;24.07;38.89;100104.87;1743942;82;21146;-65
2021/05/06 13:11:15;;;;;;;4.65;2.20;;;;;;;24.00;38.77;100113.00;1726673;82;21102;-64
2021/05/06 13:13:45;;;;;;;4.17;2.00;;;;;;;23.81;37.53;100112.98;1721791;82;21143;-64
2021/05/06 13:16:17;;;;;;;3.77;1.60;;;;;;;23.76;38.23;100119.17;1723528;82;21123;-51
2021/05/06 13:19:00;;;;;;;4.55;1.80;;;;;;;23.81;37.74;100124.20;1723594;83;21161;-64
2021/05/06 13:21:28;;;;;;;4.58;2.00;;;;;;;23.78;37.31;100128.45;1725821;83;21307;-50
2021/05/06 13:23:57;;;;;;;7.15;2.85;;;;;;;23.78;37.19;100116.36;1725999;83;21314;-51
2021/05/06 13:26:34;;;;;;;5.47;2.02;;;;;;;23.89;37.72;100120.48;1749658;82;21315;-52
2021/05/06 13:29:06;;;;;;;4.15;2.10;;;;;;;24.05;37.75;100122.94;1756042;81;21136;-52
2021/05/06 13:31:37;;;;;;;4.60;2.42;;;;;;;24.30;37.55;100115.27;1757146;81;21126;-51
2021/05/06 13:34:16;;;;;;;4.60;1.87;;;;;;;24.67;36.79;100118.84;1734842;81;21119;-65
2021/05/06 13:36:59;;;;;;;4.15;2.17;;;;;;;25.09;36.83;100120.59;1753988;81;21131;-65
2021/05/06 13:39:27;;;;;;;6.03;2.12;;;;;;;25.45;35.56;100118.70;1756779;81;21264;-51
2021/05/06 13:41:57;;;;;;;3.50;1.70;;;;;;;25.81;35.08;100125.32;1751225;81;21163;-65
2021/05/06 13:44:26;;;;;;;5.35;1.87;;;;;;;26.09;34.76;100119.89;1747968;81;21135;-52
2021/05/06 13:46:56;;;;;;;3.37;1.65;;;;;;;26.19;33.87;100111.92;1761578;81;21143;-52
2021/05/06 13:49:28;;;;;;;4.90;2.30;;;;;;;26.28;32.74;100114.34;1752876;81;21131;-64
2021/05/06 13:51:57;;;;;;;3.80;2.40;;;;;;;26.20;33.57;100119.03;1735012;81;21170;-51
2021/05/06 13:54:27;;;;;;;4.17;1.50;;;;;;;26.23;33.15;100111.19;1695491;84;21137;-52
2021/05/06 13:56:55;;;;;;;4.35;2.37;;;;;;;26.27;32.79;100105.41;1696422;84;21308;-53
2021/05/06 13:59:24;;;;;;;4.50;2.60;;;;;;;26.24;33.07;100113.75;1685770;84;21127;-54
2021/05/06 14:01:55;;;;;;;3.52;2.22;;;;;;;26.33;33.17;100111.28;1678749;85;21179;-54
2021/05/06 14:04:23;;;;;;;5.87;2.67;;;;;;;26.42;33.32;100117.27;1684745;84;21160;-67
2021/05/06 14:06:52;;;;;;;10.30;5.45;;;;;;;26.41;32.63;100112.85;1681330;84;21340;-54
2021/05/06 14:09:21;;;;;;;8.58;5.03;;;;;;;26.41;33.55;100108.80;1678976;85;21183;-54
2021/05/06 14:11:50;;;;;;;7.70;4.70;;;;;;;26.51;33.58;100110.23;1685791;84;21172;-54
2021/05/06 14:14:19;;;;;;;11.65;4.58;;;;;;;26.57;33.41;100109.20;1705892;83;21589;-66
2021/05/06 14:16:47;;;;;;;7.33;5.33;;;;;;;26.59;33.69;100111.80;1694768;84;21183;-54
2021/05/06 14:19:17;;;;;;;9.83;5.87;;;;;;;26.71;32.83;100114.78;1707240;84;21325;-67
2021/05/06 14:21:48;;;;;;;6.65;2.87;;;;;;;26.89;33.25;100109.36;1702326;84;21134;-67
2021/05/06 14:24:16;;;;;;;3.20;1.72;;;;;;;27.15;33.39;100110.65;1679051;85;21187;-54
2021/05/06 14:26:48;;;;;;;3.87;1.70;;;;;;;27.27;31.27;100097.07;1679195;85;21332;-54
2021/05/06 14:29:17;;;;;;;;;;;;;;;27.11;30.78;100102.45;1681598;85;21163;-54
2021/05/06 14:31:45;;;;;;;3.40;1.65;;;;;;;26.95;31.61;100104.75;1677009;85;20332;-54
2021/05/06 14:34:13;;;;;;;3.33;1.45;;;;;;;26.91;31.70;100104.17;1731200;82;21139;-67
2021/05/06 14:36:43;;;;;;;3.77;1.60;;;;;;;26.94;31.29;100105.73;1683778;85;21182;-53
2021/05/06 14:39:12;;;;;;;4.03;1.30;;;;;;;27.05;31.46;100106.19;1708733;83;21131;-54
2021/05/06 14:41:42;;;;;;;8.10;1.57;;;;;;;27.18;31.52;100100.06;1684674;84;21141;-67
2021/05/06 14:44:11;;;;;;;4.53;1.57;;;;;;;27.28;30.77;100099.62;1718550;83;21324;-67
2021/05/06 14:46:39;;;;;;;13.28;1.95;;;;;;;27.39;31.20;100100.53;1718408;83;21135;-54
2021/05/06 14:49:07;;;;;;;3.02;1.37;;;;;;;27.53;30.85;100092.58;1718729;83;21308;-67
2021/05/06 14:51:36;;;;;;;4.45;1.45;;;;;;;27.67;30.39;100091.35;1730527;82;21142;-54
2021/05/06 14:54:05;;;;;;;2.90;1.50;;;;;;;27.73;29.99;100091.67;1747923;81;21269;-54
2021/05/06 14:56:33;;;;;;;5.45;2.05;;;;;;;27.68;30.38;100104.75;1748119;81;21120;-68
2021/05/06 14:59:02;;;;;;;5.80;2.00;;;;;;;27.50;30.17;100100.48;1748228;82;21179;-67
2021/05/06 15:01:33;;;;;;;2.72;1.30;;;;;;;27.36;30.14;100112.96;1730497;80;21181;-54
2021/05/06 15:04:01;;;;;;;3.30;1.62;;;;;;;27.12;30.51;100110.91;1747089;81;21159;-53
2021/05/06 15:06:29;;;;;;;3.80;1.35;;;;;;;27.08;30.15;100112.16;1720537;82;21182;-67
2021/05/06 15:09:02;;;;;;;2.98;1.12;;;;;;;27.09;30.25;100108.48;1717247;82;21167;-68
2021/05/06 15:11:28;;;;;;;3.47;1.02;;;;;;;27.13;29.78;100107.73;1742667;82;21212;-67
2021/05/06 15:13:58;;;;;;;2.10;1.15;;;;;;;27.09;29.71;100111.17;1747176;82;21172;-67
2021/05/06 15:16:26;;;;;;;2.37;1.22;;;;;;;26.95;29.68;100108.33;1721215;81;21200;-67
2021/05/06 15:18:54;;;;;;;2.33;1.12;;;;;;;26.71;30.05;100110.73;1723586;82;21171;-53
2021/05/06 15:21:22;;;;;;;11.97;2.30;;;;;;;26.41;30.33;100124.48;1747076;82;21643;-53